sensor_id;sensor_type;location;lat;lon;timestamp;P1;durP1;ratioP1;P2;durP2;ratioP2
9940;SDS011;5009;50.656;7.188;2023-07-20T02:11:15;5.00;;;3.80;;
9940;SDS011;5009;50.656;7.188;2023-07-20T02:13:40;4.38;;;3.80;;
9940;SDS011;5009;50.656;7.188;2023-07-20T02:16:06;4.53;;;4.10;;
9940;SDS011;5009;50.656;7.188;2023-07-20T02:18:32;5.90;;;3.90;;
9940;SDS011;5009;50.656;7.188;2023-07-20T02:20:58;3.95;;;3.65;;
9940;SDS011;5009;50.656;7.188;2023-07-20T02:23:24;5.43;;;4.03;;
9940;SDS011;5009;50.656;7.188;2023-07-20T02:25:49;4.22;;;3.70;;
9940;SDS011;5009;50.656;7.188;2023-07-20T02:28:15;5.38;;;3.92;;
9940;SDS011;5009;50.656;7.188;2023-07-20T02:30:41;4.72;;;3.88;;
9940;SDS011;5009;50.656;7.188;2023-07-20T02:33:07;4.82;;;3.83;;
9940;SDS011;5009;50.656;7.188;2023-07-20T02:35:32;4.55;;;4.03;;
9940;SDS011;5009;50.656;7.188;2023-07-20T02:37:59;5.25;;;3.30;;
9940;SDS011;5009;50.656;7.188;2023-07-20T02:40:25;4.75;;;3.83;;
9940;SDS011;5009;50.656;7.188;2023-07-20T02:42:50;4.43;;;4.03;;
9940;SDS011;5009;50.656;7.188;2023-07-20T02:45:16;4.28;;;3.50;;
9940;SDS011;5009;50.656;7.188;2023-07-20T02:47:41;3.72;;;3.33;;
9940;SDS011;5009;50.656;7.188;2023-07-20T02:50:07;3.85;;;3.45;;
9940;SDS011;5009;50.656;7.188;2023-07-20T02:52:33;4.18;;;3.78;;
9940;SDS011;5009;50.656;7.188;2023-07-20T02:54:59;4.30;;;3.67;;
9940;SDS011;5009;50.656;7.188;2023-07-20T02:57:25;6.78;;;4.25;;
9940;SDS011;5009;50.656;7.188;2023-07-20T02:59:50;5.90;;;4.30;;
9940;SDS011;5009;50.656;7.188;2023-07-20T03:02:16;4.90;;;4.50;;
9940;SDS011;5009;50.656;7.188;2023-07-20T03:04:41;4.72;;;4.00;;
9940;SDS011;5009;50.656;7.188;2023-07-20T03:07:07;4.28;;;3.85;;
9940;SDS011;5009;50.656;7.188;2023-07-20T03:09:33;4.30;;;3.88;;
9940;SDS011;5009;50.656;7.188;2023-07-20T03:11:59;4.57;;;4.03;;
9940;SDS011;5009;50.656;7.188;2023-07-20T03:14:24;4.35;;;3.85;;
9940;SDS011;5009;50.656;7.188;2023-07-20T03:16:50;3.70;;;3.40;;
9940;SDS011;5009;50.656;7.188;2023-07-20T03:19:15;4.45;;;4.00;;
9940;SDS011;5009;50.656;7.188;2023-07-20T03:21:41;4.15;;;3.72;;
9940;SDS011;5009;50.656;7.188;2023-07-20T03:24:07;4.80;;;3.95;;
9940;SDS011;5009;50.656;7.188;2023-07-20T03:26:34;4.40;;;4.00;;
9940;SDS011;5009;50.656;7.188;2023-07-20T03:29:00;4.50;;;4.10;;
9940;SDS011;5009;50.656;7.188;2023-07-20T03:31:26;5.82;;;3.90;;
9940;SDS011;5009;50.656;7.188;2023-07-20T03:33:51;4.80;;;4.40;;
9940;SDS011;5009;50.656;7.188;2023-07-20T03:36:17;4.20;;;3.80;;
9940;SDS011;5009;50.656;7.188;2023-07-20T03:38:42;5.05;;;4.00;;
9940;SDS011;5009;50.656;7.188;2023-07-20T03:41:08;4.10;;;3.70;;
9940;SDS011;5009;50.656;7.188;2023-07-20T03:43:34;3.97;;;3.67;;
9940;SDS011;5009;50.656;7.188;2023-07-20T03:46:00;4.10;;;3.70;;
9940;SDS011;5009;50.656;7.188;2023-07-20T03:48:25;8.10;;;3.90;;
9940;SDS011;5009;50.656;7.188;2023-07-20T03:50:52;3.92;;;3.70;;
9940;SDS011;5009;50.656;7.188;2023-07-20T03:53:19;4.18;;;3.70;;
9940;SDS011;5009;50.656;7.188;2023-07-20T03:55:45;5.07;;;3.83;;
9940;SDS011;5009;50.656;7.188;2023-07-20T03:58:14;3.83;;;3.40;;
9940;SDS011;5009;50.656;7.188;2023-07-20T04:00:47;4.10;;;3.70;;
9940;SDS011;5009;50.656;7.188;2023-07-20T04:03:15;4.38;;;3.67;;
9940;SDS011;5009;50.656;7.188;2023-07-20T04:05:42;3.80;;;3.47;;
9940;SDS011;5009;50.656;7.188;2023-07-20T04:08:08;4.25;;;3.83;;
9940;SDS011;5009;50.656;7.188;2023-07-20T04:10:34;4.18;;;3.50;;
9940;SDS011;5009;50.656;7.188;2023-07-20T04:13:00;5.07;;;3.85;;
9940;SDS011;5009;50.656;7.188;2023-07-20T04:15:26;4.27;;;3.87;;
9940;SDS011;5009;50.656;7.188;2023-07-20T04:17:51;3.75;;;3.45;;
9940;SDS011;5009;50.656;7.188;2023-07-20T04:20:17;4.13;;;3.70;;
9940;SDS011;5009;50.656;7.188;2023-07-20T04:22:43;5.03;;;3.50;;
9940;SDS011;5009;50.656;7.188;2023-07-20T04:25:09;3.60;;;3.30;;
9940;SDS011;5009;50.656;7.188;2023-07-20T04:27:35;4.78;;;4.00;;
9940;SDS011;5009;50.656;7.188;2023-07-20T04:30:01;4.00;;;3.60;;
9940;SDS011;5009;50.656;7.188;2023-07-20T04:32:27;4.60;;;4.00;;
9940;SDS011;5009;50.656;7.188;2023-07-20T04:34:52;3.97;;;3.58;;
9940;SDS011;5009;50.656;7.188;2023-07-20T04:37:18;4.82;;;3.65;;
9940;SDS011;5009;50.656;7.188;2023-07-20T04:39:44;4.05;;;3.50;;
9940;SDS011;5009;50.656;7.188;2023-07-20T04:42:09;4.82;;;4.28;;
9940;SDS011;5009;50.656;7.188;2023-07-20T04:44:35;4.93;;;4.40;;
9940;SDS011;5009;50.656;7.188;2023-07-20T04:47:00;6.10;;;4.20;;
9940;SDS011;5009;50.656;7.188;2023-07-20T04:49:27;7.13;;;4.68;;
9940;SDS011;5009;50.656;7.188;2023-07-20T04:51:53;5.32;;;4.05;;
9940;SDS011;5009;50.656;7.188;2023-07-20T04:54:19;7.10;;;4.22;;
9940;SDS011;5009;50.656;7.188;2023-07-20T04:56:45;4.88;;;4.40;;
9940;SDS011;5009;50.656;7.188;2023-07-20T04:59:10;5.95;;;4.45;;
9940;SDS011;5009;50.656;7.188;2023-07-20T05:01:36;6.25;;;4.80;;
9940;SDS011;5009;50.656;7.188;2023-07-20T05:04:02;4.85;;;4.18;;
9940;SDS011;5009;50.656;7.188;2023-07-20T05:06:27;4.82;;;4.43;;
9940;SDS011;5009;50.656;7.188;2023-07-20T05:08:53;4.93;;;4.43;;
9940;SDS011;5009;50.656;7.188;2023-07-20T05:11:19;4.85;;;4.43;;
9940;SDS011;5009;50.656;7.188;2023-07-20T05:13:45;7.32;;;4.55;;
9940;SDS011;5009;50.656;7.188;2023-07-20T05:16:10;4.45;;;4.05;;
9940;SDS011;5009;50.656;7.188;2023-07-20T05:18:36;4.70;;;4.07;;
9940;SDS011;5009;50.656;7.188;2023-07-20T05:21:01;5.32;;;4.00;;
9940;SDS011;5009;50.656;7.188;2023-07-20T05:23:27;8.10;;;4.30;;
9940;SDS011;5009;50.656;7.188;2023-07-20T05:25:56;5.55;;;4.03;;
9940;SDS011;5009;50.656;7.188;2023-07-20T05:28:22;8.52;;;4.60;;
9940;SDS011;5009;50.656;7.188;2023-07-20T05:30:48;4.68;;;4.28;;
9940;SDS011;5009;50.656;7.188;2023-07-20T05:33:16;5.25;;;4.10;;
9940;SDS011;5009;50.656;7.188;2023-07-20T05:35:42;6.70;;;4.10;;
9940;SDS011;5009;50.656;7.188;2023-07-20T05:38:08;4.80;;;4.20;;
9940;SDS011;5009;50.656;7.188;2023-07-20T05:40:37;9.20;;;4.28;;
9940;SDS011;5009;50.656;7.188;2023-07-20T05:43:04;6.28;;;4.20;;
9940;SDS011;5009;50.656;7.188;2023-07-20T05:45:30;6.13;;;4.35;;
9940;SDS011;5009;50.656;7.188;2023-07-20T05:47:55;7.68;;;4.07;;
9940;SDS011;5009;50.656;7.188;2023-07-20T05:50:21;6.32;;;4.70;;
9940;SDS011;5009;50.656;7.188;2023-07-20T05:52:47;11.00;;;4.82;;
9940;SDS011;5009;50.656;7.188;2023-07-20T05:55:13;7.28;;;5.13;;
9940;SDS011;5009;50.656;7.188;2023-07-20T05:57:38;9.48;;;4.97;;
9940;SDS011;5009;50.656;7.188;2023-07-20T06:00:07;8.02;;;5.18;;
9940;SDS011;5009;50.656;7.188;2023-07-20T06:02:33;5.95;;;5.35;;
9940;SDS011;5009;50.656;7.188;2023-07-20T06:04:58;7.38;;;5.30;;
9940;SDS011;5009;50.656;7.188;2023-07-20T06:07:24;9.52;;;5.40;;
9940;SDS011;5009;50.656;7.188;2023-07-20T06:09:49;8.20;;;5.43;;
9940;SDS011;5009;50.656;7.188;2023-07-20T06:12:15;7.15;;;5.45;;
9940;SDS011;5009;50.656;7.188;2023-07-20T06:14:40;9.02;;;5.68;;
9940;SDS011;5009;50.656;7.188;2023-07-20T06:17:06;8.10;;;5.28;;
9940;SDS011;5009;50.656;7.188;2023-07-20T06:19:32;8.20;;;5.50;;
9940;SDS011;5009;50.656;7.188;2023-07-20T06:21:57;10.90;;;5.90;;
9940;SDS011;5009;50.656;7.188;2023-07-20T06:24:23;7.22;;;5.38;;
9940;SDS011;5009;50.656;7.188;2023-07-20T06:26:49;6.65;;;5.70;;
9940;SDS011;5009;50.656;7.188;2023-07-20T06:29:14;8.90;;;5.47;;
9940;SDS011;5009;50.656;7.188;2023-07-20T06:31:40;10.13;;;5.88;;
9940;SDS011;5009;50.656;7.188;2023-07-20T06:34:05;6.35;;;5.70;;
9940;SDS011;5009;50.656;7.188;2023-07-20T06:36:31;7.60;;;5.70;;
9940;SDS011;5009;50.656;7.188;2023-07-20T06:38:56;6.47;;;5.65;;
9940;SDS011;5009;50.656;7.188;2023-07-20T06:41:22;8.23;;;5.95;;
9940;SDS011;5009;50.656;7.188;2023-07-20T06:43:48;7.13;;;6.43;;
9940;SDS011;5009;50.656;7.188;2023-07-20T06:46:13;7.57;;;5.57;;
9940;SDS011;5009;50.656;7.188;2023-07-20T06:48:39;6.65;;;5.93;;
9940;SDS011;5009;50.656;7.188;2023-07-20T06:51:04;6.45;;;5.35;;
9940;SDS011;5009;50.656;7.188;2023-07-20T06:53:30;8.82;;;5.20;;
9940;SDS011;5009;50.656;7.188;2023-07-20T06:55:56;10.23;;;5.32;;
9940;SDS011;5009;50.656;7.188;2023-07-20T06:58:22;9.27;;;5.68;;
9940;SDS011;5009;50.656;7.188;2023-07-20T07:00:48;6.10;;;5.22;;
9940;SDS011;5009;50.656;7.188;2023-07-20T07:03:14;6.55;;;5.05;;
9940;SDS011;5009;50.656;7.188;2023-07-20T07:05:40;6.10;;;4.75;;
9940;SDS011;5009;50.656;7.188;2023-07-20T07:08:05;8.77;;;4.80;;
9940;SDS011;5009;50.656;7.188;2023-07-20T07:10:32;6.43;;;4.55;;
9940;SDS011;5009;50.656;7.188;2023-07-20T07:12:58;6.07;;;4.60;;
9940;SDS011;5009;50.656;7.188;2023-07-20T07:15:23;8.20;;;5.00;;
9940;SDS011;5009;50.656;7.188;2023-07-20T07:17:49;6.82;;;4.45;;
9940;SDS011;5009;50.656;7.188;2023-07-20T07:20:15;7.45;;;4.93;;
9940;SDS011;5009;50.656;7.188;2023-07-20T07:22:41;5.75;;;4.65;;
9940;SDS011;5009;50.656;7.188;2023-07-20T07:25:10;4.72;;;4.30;;
9940;SDS011;5009;50.656;7.188;2023-07-20T07:27:35;6.90;;;4.65;;
9940;SDS011;5009;50.656;7.188;2023-07-20T07:30:01;8.75;;;4.80;;
9940;SDS011;5009;50.656;7.188;2023-07-20T07:32:28;8.85;;;5.60;;
9940;SDS011;5009;50.656;7.188;2023-07-20T07:34:53;7.18;;;4.75;;
9940;SDS011;5009;50.656;7.188;2023-07-20T07:37:19;7.22;;;4.30;;
9940;SDS011;5009;50.656;7.188;2023-07-20T07:39:45;5.28;;;3.85;;
9940;SDS011;5009;50.656;7.188;2023-07-20T07:42:11;9.30;;;4.38;;
9940;SDS011;5009;50.656;7.188;2023-07-20T07:44:37;6.00;;;4.30;;
9940;SDS011;5009;50.656;7.188;2023-07-20T07:47:03;7.20;;;4.45;;
9940;SDS011;5009;50.656;7.188;2023-07-20T07:49:29;5.45;;;4.25;;
9940;SDS011;5009;50.656;7.188;2023-07-20T07:51:56;5.13;;;4.57;;
9940;SDS011;5009;50.656;7.188;2023-07-20T07:54:22;6.82;;;4.25;;
9940;SDS011;5009;50.656;7.188;2023-07-20T07:56:47;6.18;;;3.80;;
9940;SDS011;5009;50.656;7.188;2023-07-20T07:59:13;7.43;;;3.97;;
9940;SDS011;5009;50.656;7.188;2023-07-20T08:01:38;5.20;;;3.92;;
9940;SDS011;5009;50.656;7.188;2023-07-20T08:04:04;6.05;;;3.92;;
9940;SDS011;5009;50.656;7.188;2023-07-20T08:06:29;4.47;;;4.07;;
9940;SDS011;5009;50.656;7.188;2023-07-20T08:08:56;6.15;;;4.15;;
9940;SDS011;5009;50.656;7.188;2023-07-20T08:11:23;7.07;;;4.43;;
9940;SDS011;5009;50.656;7.188;2023-07-20T08:13:49;5.63;;;4.07;;
9940;SDS011;5009;50.656;7.188;2023-07-20T08:16:14;4.03;;;3.67;;
9940;SDS011;5009;50.656;7.188;2023-07-20T08:18:40;4.45;;;3.75;;
9940;SDS011;5009;50.656;7.188;2023-07-20T08:21:06;4.38;;;3.92;;
9940;SDS011;5009;50.656;7.188;2023-07-20T08:23:31;4.35;;;3.90;;
9940;SDS011;5009;50.656;7.188;2023-07-20T08:25:57;5.53;;;3.65;;
9940;SDS011;5009;50.656;7.188;2023-07-20T08:28:22;4.07;;;3.40;;
9940;SDS011;5009;50.656;7.188;2023-07-20T08:30:48;3.83;;;3.47;;
9940;SDS011;5009;50.656;7.188;2023-07-20T08:33:14;4.90;;;3.55;;
9940;SDS011;5009;50.656;7.188;2023-07-20T08:35:48;7.82;;;3.50;;
9940;SDS011;5009;50.656;7.188;2023-07-20T08:38:14;5.50;;;3.47;;
9940;SDS011;5009;50.656;7.188;2023-07-20T08:40:40;3.85;;;2.95;;
9940;SDS011;5009;50.656;7.188;2023-07-20T08:43:08;4.93;;;3.72;;
9940;SDS011;5009;50.656;7.188;2023-07-20T08:45:35;5.18;;;3.35;;
9940;SDS011;5009;50.656;7.188;2023-07-20T08:48:04;4.07;;;3.22;;
9940;SDS011;5009;50.656;7.188;2023-07-20T08:50:30;4.15;;;3.15;;
9940;SDS011;5009;50.656;7.188;2023-07-20T08:52:57;3.72;;;3.25;;
9940;SDS011;5009;50.656;7.188;2023-07-20T08:55:24;3.30;;;2.90;;
9940;SDS011;5009;50.656;7.188;2023-07-20T08:57:56;3.47;;;3.08;;
9940;SDS011;5009;50.656;7.188;2023-07-20T09:00:23;4.07;;;3.05;;
9940;SDS011;5009;50.656;7.188;2023-07-20T09:02:50;4.35;;;2.72;;
9940;SDS011;5009;50.656;7.188;2023-07-20T09:05:18;3.17;;;2.88;;
9940;SDS011;5009;50.656;7.188;2023-07-20T09:07:44;2.92;;;2.65;;
9940;SDS011;5009;50.656;7.188;2023-07-20T09:10:10;4.35;;;2.45;;
9940;SDS011;5009;50.656;7.188;2023-07-20T09:12:38;2.70;;;2.50;;
9940;SDS011;5009;50.656;7.188;2023-07-20T09:15:05;2.70;;;2.50;;
9940;SDS011;5009;50.656;7.188;2023-07-20T09:17:31;2.53;;;2.33;;
9940;SDS011;5009;50.656;7.188;2023-07-20T09:19:57;2.53;;;2.33;;
9940;SDS011;5009;50.656;7.188;2023-07-20T09:22:29;3.67;;;2.90;;
9940;SDS011;5009;50.656;7.188;2023-07-20T09:24:55;3.22;;;2.92;;
9940;SDS011;5009;50.656;7.188;2023-07-20T09:27:21;2.72;;;2.50;;
9940;SDS011;5009;50.656;7.188;2023-07-20T09:29:50;2.63;;;2.35;;
9940;SDS011;5009;50.656;7.188;2023-07-20T09:32:19;3.80;;;2.53;;
9940;SDS011;5009;50.656;7.188;2023-07-20T09:34:46;2.60;;;2.40;;
9940;SDS011;5009;50.656;7.188;2023-07-20T09:37:12;5.45;;;2.70;;
9940;SDS011;5009;50.656;7.188;2023-07-20T09:39:44;2.65;;;2.33;;
9940;SDS011;5009;50.656;7.188;2023-07-20T09:42:13;2.85;;;2.30;;
9940;SDS011;5009;50.656;7.188;2023-07-20T09:44:39;2.55;;;2.35;;
9940;SDS011;5009;50.656;7.188;2023-07-20T09:47:08;2.20;;;2.10;;
9940;SDS011;5009;50.656;7.188;2023-07-20T09:49:38;2.90;;;2.40;;
9940;SDS011;5009;50.656;7.188;2023-07-20T09:52:10;3.17;;;2.88;;
9940;SDS011;5009;50.656;7.188;2023-07-20T09:54:37;2.55;;;2.35;;
9940;SDS011;5009;50.656;7.188;2023-07-20T09:57:03;2.40;;;2.08;;
9940;SDS011;5009;50.656;7.188;2023-07-20T09:59:35;2.70;;;2.50;;
9940;SDS011;5009;50.656;7.188;2023-07-20T10:02:01;2.53;;;2.33;;
9940;SDS011;5009;50.656;7.188;2023-07-20T10:04:30;2.70;;;2.50;;
9940;SDS011;5009;50.656;7.188;2023-07-20T10:06:56;3.00;;;2.33;;
9940;SDS011;5009;50.656;7.188;2023-07-20T10:09:25;2.50;;;2.40;;
9940;SDS011;5009;50.656;7.188;2023-07-20T10:11:52;2.70;;;2.50;;
9940;SDS011;5009;50.656;7.188;2023-07-20T10:14:20;2.72;;;2.53;;
9940;SDS011;5009;50.656;7.188;2023-07-20T10:16:50;2.20;;;2.10;;
9940;SDS011;5009;50.656;7.188;2023-07-20T10:19:24;3.10;;;2.67;;
9940;SDS011;5009;50.656;7.188;2023-07-20T10:22:07;4.53;;;2.72;;
9940;SDS011;5009;50.656;7.188;2023-07-20T10:24:38;2.58;;;2.38;;
9940;SDS011;5009;50.656;7.188;2023-07-20T10:27:06;2.90;;;2.38;;
9940;SDS011;5009;50.656;7.188;2023-07-20T10:29:32;2.63;;;2.42;;
9940;SDS011;5009;50.656;7.188;2023-07-20T10:31:58;4.28;;;2.67;;
9940;SDS011;5009;50.656;7.188;2023-07-20T10:34:24;2.50;;;2.30;;
9940;SDS011;5009;50.656;7.188;2023-07-20T10:36:50;2.47;;;2.28;;
9940;SDS011;5009;50.656;7.188;2023-07-20T10:39:27;2.58;;;2.38;;
9940;SDS011;5009;50.656;7.188;2023-07-20T10:42:07;2.92;;;2.30;;
9940;SDS011;5009;50.656;7.188;2023-07-20T10:44:36;2.00;;;1.90;;
9940;SDS011;5009;50.656;7.188;2023-07-20T10:47:03;2.55;;;2.35;;
9940;SDS011;5009;50.656;7.188;2023-07-20T10:52:23;10.23;;;2.20;;
9940;SDS011;5009;50.656;7.188;2023-07-20T10:54:48;4.03;;;2.67;;
9940;SDS011;5009;50.656;7.188;2023-07-20T10:57:22;2.92;;;2.50;;
9940;SDS011;5009;50.656;7.188;2023-07-20T10:59:48;5.07;;;2.58;;
9940;SDS011;5009;50.656;7.188;2023-07-20T11:02:17;3.13;;;2.65;;
9940;SDS011;5009;50.656;7.188;2023-07-20T11:04:45;2.63;;;2.42;;
9940;SDS011;5009;50.656;7.188;2023-07-20T11:07:15;5.50;;;2.90;;
9940;SDS011;5009;50.656;7.188;2023-07-20T11:09:42;3.78;;;2.22;;
9940;SDS011;5009;50.656;7.188;2023-07-20T11:12:17;3.05;;;2.78;;
9940;SDS011;5009;50.656;7.188;2023-07-20T11:14:44;3.20;;;2.47;;
9940;SDS011;5009;50.656;7.188;2023-07-20T11:17:19;8.68;;;2.33;;
9940;SDS011;5009;50.656;7.188;2023-07-20T11:19:50;2.33;;;2.13;;
9940;SDS011;5009;50.656;7.188;2023-07-20T11:22:21;2.78;;;2.25;;
9940;SDS011;5009;50.656;7.188;2023-07-20T11:24:47;2.70;;;2.50;;
9940;SDS011;5009;50.656;7.188;2023-07-20T11:27:14;2.45;;;2.25;;
9940;SDS011;5009;50.656;7.188;2023-07-20T11:29:40;2.65;;;2.45;;
9940;SDS011;5009;50.656;7.188;2023-07-20T11:32:06;2.33;;;2.13;;
9940;SDS011;5009;50.656;7.188;2023-07-20T11:34:32;2.60;;;2.40;;
9940;SDS011;5009;50.656;7.188;2023-07-20T11:36:58;2.70;;;2.50;;
9940;SDS011;5009;50.656;7.188;2023-07-20T11:39:24;3.20;;;2.50;;
9940;SDS011;5009;50.656;7.188;2023-07-20T11:41:54;2.33;;;2.22;;
9940;SDS011;5009;50.656;7.188;2023-07-20T11:44:21;3.75;;;2.40;;
9940;SDS011;5009;50.656;7.188;2023-07-20T11:47:00;3.92;;;2.22;;
9940;SDS011;5009;50.656;7.188;2023-07-20T11:49:29;3.63;;;2.30;;
9940;SDS011;5009;50.656;7.188;2023-07-20T11:51:56;2.80;;;2.28;;
9940;SDS011;5009;50.656;7.188;2023-07-20T11:54:22;4.53;;;2.72;;
9940;SDS011;5009;50.656;7.188;2023-07-20T11:56:53;3.13;;;2.00;;
9940;SDS011;5009;50.656;7.188;2023-07-20T11:59:19;3.10;;;2.20;;
9940;SDS011;5009;50.656;7.188;2023-07-20T12:01:45;5.07;;;2.20;;
9940;SDS011;5009;50.656;7.188;2023-07-20T12:04:10;2.55;;;2.00;;
9940;SDS011;5009;50.656;7.188;2023-07-20T12:06:36;3.35;;;2.05;;
9940;SDS011;5009;50.656;7.188;2023-07-20T12:09:01;4.03;;;2.05;;
9940;SDS011;5009;50.656;7.188;2023-07-20T12:11:34;2.30;;;2.08;;
9940;SDS011;5009;50.656;7.188;2023-07-20T12:14:04;2.35;;;2.10;;
9940;SDS011;5009;50.656;7.188;2023-07-20T12:16:33;2.50;;;2.33;;
9940;SDS011;5009;50.656;7.188;2023-07-20T12:19:00;4.28;;;2.30;;
9940;SDS011;5009;50.656;7.188;2023-07-20T12:21:27;2.13;;;2.03;;
9940;SDS011;5009;50.656;7.188;2023-07-20T12:23:56;2.08;;;1.83;;
9940;SDS011;5009;50.656;7.188;2023-07-20T12:26:23;2.50;;;2.30;;
9940;SDS011;5009;50.656;7.188;2023-07-20T12:28:49;3.30;;;2.00;;
9940;SDS011;5009;50.656;7.188;2023-07-20T12:31:15;2.33;;;2.22;;
9940;SDS011;5009;50.656;7.188;2023-07-20T12:33:40;2.47;;;2.28;;
9940;SDS011;5009;50.656;7.188;2023-07-20T12:36:06;2.90;;;2.58;;
9940;SDS011;5009;50.656;7.188;2023-07-20T12:38:33;2.67;;;2.33;;
9940;SDS011;5009;50.656;7.188;2023-07-20T12:41:00;2.90;;;2.65;;
9940;SDS011;5009;50.656;7.188;2023-07-20T12:43:26;2.90;;;2.53;;
9940;SDS011;5009;50.656;7.188;2023-07-20T12:45:52;3.90;;;2.30;;
9940;SDS011;5009;50.656;7.188;2023-07-20T12:48:18;4.15;;;2.35;;
9940;SDS011;5009;50.656;7.188;2023-07-20T12:50:43;2.67;;;2.30;;
9940;SDS011;5009;50.656;7.188;2023-07-20T12:53:09;4.22;;;2.33;;
9940;SDS011;5009;50.656;7.188;2023-07-20T12:55:35;3.45;;;2.40;;
9940;SDS011;5009;50.656;7.188;2023-07-20T12:58:01;3.63;;;2.20;;
9940;SDS011;5009;50.656;7.188;2023-07-20T13:00:26;2.53;;;2.33;;
9940;SDS011;5009;50.656;7.188;2023-07-20T13:02:52;2.10;;;2.00;;
9940;SDS011;5009;50.656;7.188;2023-07-20T13:05:18;2.03;;;1.90;;
9940;SDS011;5009;50.656;7.188;2023-07-20T13:07:43;3.20;;;2.47;;
9940;SDS011;5009;50.656;7.188;2023-07-20T13:10:09;3.65;;;2.22;;
9940;SDS011;5009;50.656;7.188;2023-07-20T13:12:36;5.60;;;2.45;;
9940;SDS011;5009;50.656;7.188;2023-07-20T13:15:03;2.67;;;2.47;;
9940;SDS011;5009;50.656;7.188;2023-07-20T13:17:36;1.92;;;1.80;;
9940;SDS011;5009;50.656;7.188;2023-07-20T13:20:04;2.75;;;2.00;;
9940;SDS011;5009;50.656;7.188;2023-07-20T13:22:31;3.42;;;2.30;;
9940;SDS011;5009;50.656;7.188;2023-07-20T13:24:57;2.38;;;2.17;;
9940;SDS011;5009;50.656;7.188;2023-07-20T13:27:22;2.30;;;1.98;;
9940;SDS011;5009;50.656;7.188;2023-07-20T13:29:50;2.10;;;1.90;;
9940;SDS011;5009;50.656;7.188;2023-07-20T13:32:15;3.15;;;2.30;;
9940;SDS011;5009;50.656;7.188;2023-07-20T13:34:41;2.80;;;2.30;;
9940;SDS011;5009;50.656;7.188;2023-07-20T13:37:08;2.80;;;2.50;;
9940;SDS011;5009;50.656;7.188;2023-07-20T13:39:34;2.40;;;2.20;;
9940;SDS011;5009;50.656;7.188;2023-07-20T13:42:00;2.17;;;1.95;;
9940;SDS011;5009;50.656;7.188;2023-07-20T13:44:30;2.50;;;2.30;;
9940;SDS011;5009;50.656;7.188;2023-07-20T13:46:56;2.42;;;2.22;;
9940;SDS011;5009;50.656;7.188;2023-07-20T13:49:22;2.33;;;2.13;;
9940;SDS011;5009;50.656;7.188;2023-07-20T13:51:48;2.33;;;2.22;;
9940;SDS011;5009;50.656;7.188;2023-07-20T13:54:13;3.38;;;1.98;;
9940;SDS011;5009;50.656;7.188;2023-07-20T13:56:39;2.03;;;1.92;;
9940;SDS011;5009;50.656;7.188;2023-07-20T13:59:05;4.20;;;2.10;;
9940;SDS011;5009;50.656;7.188;2023-07-20T14:01:30;3.33;;;2.30;;
9940;SDS011;5009;50.656;7.188;2023-07-20T14:03:59;2.28;;;2.08;;
9940;SDS011;5009;50.656;7.188;2023-07-20T14:06:25;1.90;;;1.80;;
9940;SDS011;5009;50.656;7.188;2023-07-20T14:08:50;2.22;;;2.03;;
9940;SDS011;5009;50.656;7.188;2023-07-20T14:11:17;2.35;;;1.85;;
9940;SDS011;5009;50.656;7.188;2023-07-20T14:13:43;3.25;;;2.40;;
9940;SDS011;5009;50.656;7.188;2023-07-20T14:16:09;3.83;;;1.95;;
9940;SDS011;5009;50.656;7.188;2023-07-20T14:18:34;3.22;;;1.98;;
9940;SDS011;5009;50.656;7.188;2023-07-20T14:21:00;3.13;;;2.05;;
9940;SDS011;5009;50.656;7.188;2023-07-20T14:23:28;1.92;;;1.83;;
9940;SDS011;5009;50.656;7.188;2023-07-20T14:25:54;2.78;;;1.90;;
9940;SDS011;5009;50.656;7.188;2023-07-20T14:28:19;3.08;;;1.75;;
9940;SDS011;5009;50.656;7.188;2023-07-20T14:30:45;3.03;;;2.10;;
9940;SDS011;5009;50.656;7.188;2023-07-20T14:33:11;2.88;;;1.92;;
9940;SDS011;5009;50.656;7.188;2023-07-20T14:35:36;2.40;;;2.20;;
9940;SDS011;5009;50.656;7.188;2023-07-20T14:38:02;3.38;;;2.00;;
9940;SDS011;5009;50.656;7.188;2023-07-20T14:40:28;2.35;;;2.15;;
9940;SDS011;5009;50.656;7.188;2023-07-20T14:42:54;2.80;;;2.15;;
9940;SDS011;5009;50.656;7.188;2023-07-20T14:45:25;2.65;;;2.35;;
9940;SDS011;5009;50.656;7.188;2023-07-20T14:47:54;3.15;;;2.20;;
9940;SDS011;5009;50.656;7.188;2023-07-20T14:50:20;2.58;;;2.15;;
9940;SDS011;5009;50.656;7.188;2023-07-20T14:52:46;2.30;;;2.15;;
9940;SDS011;5009;50.656;7.188;2023-07-20T14:55:12;2.33;;;2.05;;
9940;SDS011;5009;50.656;7.188;2023-07-20T14:57:38;2.40;;;1.98;;
9940;SDS011;5009;50.656;7.188;2023-07-20T15:00:04;9.07;;;2.55;;
9940;SDS011;5009;50.656;7.188;2023-07-20T15:02:35;2.63;;;2.10;;
9940;SDS011;5009;50.656;7.188;2023-07-20T15:05:02;3.72;;;2.20;;
9940;SDS011;5009;50.656;7.188;2023-07-20T15:07:31;5.20;;;2.45;;
9940;SDS011;5009;50.656;7.188;2023-07-20T15:09:57;3.33;;;2.30;;
9940;SDS011;5009;50.656;7.188;2023-07-20T15:12:23;2.45;;;2.25;;
9940;SDS011;5009;50.656;7.188;2023-07-20T15:17:31;2.85;;;1.83;;
9940;SDS011;5009;50.656;7.188;2023-07-20T15:19:57;2.08;;;1.92;;
9940;SDS011;5009;50.656;7.188;2023-07-20T15:22:23;2.00;;;1.83;;
9940;SDS011;5009;50.656;7.188;2023-07-20T15:24:48;2.20;;;2.10;;
9940;SDS011;5009;50.656;7.188;2023-07-20T15:27:14;2.28;;;2.08;;
9940;SDS011;5009;50.656;7.188;2023-07-20T15:29:40;2.30;;;2.10;;
9940;SDS011;5009;50.656;7.188;2023-07-20T15:32:06;2.78;;;1.95;;
9940;SDS011;5009;50.656;7.188;2023-07-20T15:34:32;1.80;;;1.70;;
9940;SDS011;5009;50.656;7.188;2023-07-20T15:36:58;4.05;;;2.53;;
9940;SDS011;5009;50.656;7.188;2023-07-20T15:39:23;4.88;;;1.75;;
9940;SDS011;5009;50.656;7.188;2023-07-20T15:41:49;2.03;;;1.92;;
9940;SDS011;5009;50.656;7.188;2023-07-20T15:44:15;3.78;;;2.10;;
9940;SDS011;5009;50.656;7.188;2023-07-20T15:49:06;2.15;;;1.90;;
9940;SDS011;5009;50.656;7.188;2023-07-20T15:51:33;3.80;;;2.05;;
9940;SDS011;5009;50.656;7.188;2023-07-20T15:54:06;3.28;;;2.05;;
9940;SDS011;5009;50.656;7.188;2023-07-20T15:56:33;2.13;;;2.03;;
9940;SDS011;5009;50.656;7.188;2023-07-20T15:58:59;2.15;;;1.83;;
9940;SDS011;5009;50.656;7.188;2023-07-20T16:01:24;3.25;;;1.90;;
9940;SDS011;5009;50.656;7.188;2023-07-20T16:03:50;4.55;;;2.42;;
9940;SDS011;5009;50.656;7.188;2023-07-20T16:06:15;1.98;;;1.80;;
9940;SDS011;5009;50.656;7.188;2023-07-20T16:08:41;2.30;;;2.10;;
9940;SDS011;5009;50.656;7.188;2023-07-20T16:11:07;2.72;;;2.10;;
9940;SDS011;5009;50.656;7.188;2023-07-20T16:13:32;2.10;;;1.92;;
9940;SDS011;5009;50.656;7.188;2023-07-20T16:15:58;3.55;;;2.40;;
9940;SDS011;5009;50.656;7.188;2023-07-20T16:18:23;1.80;;;1.70;;
9940;SDS011;5009;50.656;7.188;2023-07-20T16:20:49;1.88;;;1.77;;
9940;SDS011;5009;50.656;7.188;2023-07-20T16:23:16;2.13;;;1.92;;
9940;SDS011;5009;50.656;7.188;2023-07-20T16:25:44;2.22;;;2.13;;
9940;SDS011;5009;50.656;7.188;2023-07-20T16:28:11;2.80;;;2.13;;
9940;SDS011;5009;50.656;7.188;2023-07-20T16:30:36;3.00;;;2.22;;
9940;SDS011;5009;50.656;7.188;2023-07-20T16:33:02;2.30;;;2.05;;
9940;SDS011;5009;50.656;7.188;2023-07-20T16:35:29;1.90;;;1.80;;
9940;SDS011;5009;50.656;7.188;2023-07-20T16:37:55;3.85;;;1.95;;
9940;SDS011;5009;50.656;7.188;2023-07-20T16:40:20;2.35;;;2.15;;
9940;SDS011;5009;50.656;7.188;2023-07-20T16:42:46;3.88;;;2.08;;
9940;SDS011;5009;50.656;7.188;2023-07-20T16:45:12;4.45;;;2.05;;
9940;SDS011;5009;50.656;7.188;2023-07-20T16:47:38;2.58;;;1.80;;
9940;SDS011;5009;50.656;7.188;2023-07-20T16:50:04;2.80;;;2.20;;
9940;SDS011;5009;50.656;7.188;2023-07-20T16:52:30;3.30;;;1.90;;
9940;SDS011;5009;50.656;7.188;2023-07-20T16:54:56;2.30;;;2.10;;
9940;SDS011;5009;50.656;7.188;2023-07-20T16:57:21;2.95;;;2.20;;
9940;SDS011;5009;50.656;7.188;2023-07-20T16:59:47;2.30;;;2.20;;
9940;SDS011;5009;50.656;7.188;2023-07-20T17:02:13;2.63;;;1.80;;
9940;SDS011;5009;50.656;7.188;2023-07-20T17:04:39;3.53;;;1.90;;
9940;SDS011;5009;50.656;7.188;2023-07-20T17:07:05;2.90;;;2.15;;
9940;SDS011;5009;50.656;7.188;2023-07-20T17:09:31;3.13;;;2.28;;
9940;SDS011;5009;50.656;7.188;2023-07-20T17:11:57;2.90;;;2.63;;
9940;SDS011;5009;50.656;7.188;2023-07-20T17:14:23;3.28;;;1.88;;
9940;SDS011;5009;50.656;7.188;2023-07-20T17:16:49;2.33;;;2.05;;
9940;SDS011;5009;50.656;7.188;2023-07-20T17:19:14;4.55;;;1.92;;
9940;SDS011;5009;50.656;7.188;2023-07-20T17:21:40;2.17;;;2.08;;
9940;SDS011;5009;50.656;7.188;2023-07-20T17:24:05;1.60;;;1.60;;
9940;SDS011;5009;50.656;7.188;2023-07-20T17:26:31;2.30;;;2.10;;
9940;SDS011;5009;50.656;7.188;2023-07-20T17:28:57;2.20;;;2.10;;